sensor_id;sensor_type;location;lat;lon;timestamp;P1;durP1;ratioP1;P2;durP2;ratioP2
21513;SDS011;10918;48.102;11.636;2023-08-06T00:00:06;4.38;;;3.88;;
21513;SDS011;10918;48.102;11.636;2023-08-06T00:02:33;5.82;;;4.30;;
21513;SDS011;10918;48.102;11.636;2023-08-06T00:04:59;4.20;;;3.70;;
21513;SDS011;10918;48.102;11.636;2023-08-06T00:07:25;4.57;;;4.03;;
21513;SDS011;10918;48.102;11.636;2023-08-06T00:09:51;5.03;;;3.42;;
21513;SDS011;10918;48.102;11.636;2023-08-06T00:12:17;4.30;;;3.90;;
21513;SDS011;10918;48.102;11.636;2023-08-06T00:14:43;4.85;;;4.05;;
21513;SDS011;10918;48.102;11.636;2023-08-06T00:17:09;4.82;;;3.90;;
21513;SDS011;10918;48.102;11.636;2023-08-06T00:19:35;4.72;;;4.30;;
21513;SDS011;10918;48.102;11.636;2023-08-06T00:22:02;4.43;;;3.75;;
21513;SDS011;10918;48.102;11.636;2023-08-06T00:24:27;4.55;;;3.95;;
21513;SDS011;10918;48.102;11.636;2023-08-06T00:26:53;4.40;;;4.00;;
21513;SDS011;10918;48.102;11.636;2023-08-06T00:29:25;3.95;;;3.55;;
21513;SDS011;10918;48.102;11.636;2023-08-06T00:31:51;4.38;;;3.80;;
21513;SDS011;10918;48.102;11.636;2023-08-06T00:34:17;6.07;;;3.90;;
21513;SDS011;10918;48.102;11.636;2023-08-06T00:36:43;4.00;;;3.55;;
21513;SDS011;10918;48.102;11.636;2023-08-06T00:39:09;3.65;;;3.35;;
21513;SDS011;10918;48.102;11.636;2023-08-06T00:41:36;3.72;;;3.35;;
21513;SDS011;10918;48.102;11.636;2023-08-06T00:44:02;3.83;;;3.35;;
21513;SDS011;10918;48.102;11.636;2023-08-06T00:46:28;5.20;;;3.53;;
21513;SDS011;10918;48.102;11.636;2023-08-06T00:48:53;3.50;;;3.20;;
21513;SDS011;10918;48.102;11.636;2023-08-06T00:51:21;4.45;;;3.40;;
21513;SDS011;10918;48.102;11.636;2023-08-06T00:53:48;4.22;;;3.10;;
21513;SDS011;10918;48.102;11.636;2023-08-06T00:56:15;4.45;;;4.05;;
21513;SDS011;10918;48.102;11.636;2023-08-06T00:58:44;4.03;;;3.67;;
21513;SDS011;10918;48.102;11.636;2023-08-06T01:01:11;3.10;;;2.80;;
21513;SDS011;10918;48.102;11.636;2023-08-06T01:03:37;3.15;;;2.85;;
21513;SDS011;10918;48.102;11.636;2023-08-06T01:06:03;3.47;;;2.90;;
21513;SDS011;10918;48.102;11.636;2023-08-06T01:08:41;4.63;;;3.40;;
21513;SDS011;10918;48.102;11.636;2023-08-06T01:13:42;3.47;;;2.88;;
21513;SDS011;10918;48.102;11.636;2023-08-06T01:16:11;4.03;;;2.95;;
21513;SDS011;10918;48.102;11.636;2023-08-06T01:18:38;3.95;;;3.45;;
21513;SDS011;10918;48.102;11.636;2023-08-06T01:21:06;4.80;;;3.33;;
21513;SDS011;10918;48.102;11.636;2023-08-06T01:23:32;4.10;;;3.65;;
21513;SDS011;10918;48.102;11.636;2023-08-06T01:31:30;5.35;;;4.55;;
21513;SDS011;10918;48.102;11.636;2023-08-06T01:33:56;5.90;;;4.10;;
21513;SDS011;10918;48.102;11.636;2023-08-06T01:36:23;4.30;;;3.78;;
21513;SDS011;10918;48.102;11.636;2023-08-06T01:38:50;6.50;;;4.15;;
21513;SDS011;10918;48.102;11.636;2023-08-06T01:41:16;5.88;;;4.35;;
21513;SDS011;10918;48.102;11.636;2023-08-06T01:43:42;6.00;;;4.72;;
21513;SDS011;10918;48.102;11.636;2023-08-06T01:46:08;4.82;;;4.28;;
21513;SDS011;10918;48.102;11.636;2023-08-06T01:48:35;4.45;;;4.05;;
21513;SDS011;10918;48.102;11.636;2023-08-06T01:51:01;6.68;;;4.40;;
21513;SDS011;10918;48.102;11.636;2023-08-06T01:53:27;6.53;;;4.15;;
21513;SDS011;10918;48.102;11.636;2023-08-06T01:55:53;4.65;;;4.20;;
21513;SDS011;10918;48.102;11.636;2023-08-06T01:58:18;4.53;;;4.05;;
21513;SDS011;10918;48.102;11.636;2023-08-06T02:00:44;5.35;;;3.95;;
21513;SDS011;10918;48.102;11.636;2023-08-06T02:03:10;4.70;;;4.25;;
21513;SDS011;10918;48.102;11.636;2023-08-06T02:05:36;5.32;;;3.83;;
21513;SDS011;10918;48.102;11.636;2023-08-06T02:08:02;5.50;;;4.10;;
21513;SDS011;10918;48.102;11.636;2023-08-06T02:10:28;6.53;;;4.82;;
21513;SDS011;10918;48.102;11.636;2023-08-06T02:12:54;4.88;;;4.10;;
21513;SDS011;10918;48.102;11.636;2023-08-06T02:15:20;5.07;;;3.65;;
21513;SDS011;10918;48.102;11.636;2023-08-06T02:17:46;5.82;;;3.83;;
21513;SDS011;10918;48.102;11.636;2023-08-06T02:20:12;5.53;;;3.30;;
21513;SDS011;10918;48.102;11.636;2023-08-06T02:22:38;5.13;;;3.60;;
21513;SDS011;10918;48.102;11.636;2023-08-06T02:25:04;3.70;;;3.38;;
21513;SDS011;10918;48.102;11.636;2023-08-06T02:27:30;4.55;;;3.60;;
21513;SDS011;10918;48.102;11.636;2023-08-06T02:29:56;4.57;;;3.47;;
21513;SDS011;10918;48.102;11.636;2023-08-06T02:32:22;4.55;;;3.08;;
21513;SDS011;10918;48.102;11.636;2023-08-06T02:34:48;3.22;;;2.92;;
21513;SDS011;10918;48.102;11.636;2023-08-06T02:37:14;3.47;;;2.80;;
21513;SDS011;10918;48.102;11.636;2023-08-06T02:39:40;3.72;;;2.88;;
21513;SDS011;10918;48.102;11.636;2023-08-06T02:42:07;4.40;;;3.05;;
21513;SDS011;10918;48.102;11.636;2023-08-06T02:44:33;4.63;;;3.35;;
21513;SDS011;10918;48.102;11.636;2023-08-06T02:46:59;2.97;;;2.72;;
21513;SDS011;10918;48.102;11.636;2023-08-06T02:49:25;3.50;;;2.67;;
21513;SDS011;10918;48.102;11.636;2023-08-06T02:51:51;2.50;;;2.20;;
21513;SDS011;10918;48.102;11.636;2023-08-06T02:54:18;4.50;;;2.67;;
21513;SDS011;10918;48.102;11.636;2023-08-06T02:56:44;3.08;;;2.70;;
21513;SDS011;10918;48.102;11.636;2023-08-06T02:59:10;10.82;;;8.25;;
21513;SDS011;10918;48.102;11.636;2023-08-06T03:01:36;3.00;;;2.35;;
21513;SDS011;10918;48.102;11.636;2023-08-06T03:04:02;3.40;;;2.90;;
21513;SDS011;10918;48.102;11.636;2023-08-06T03:06:28;3.45;;;2.40;;
21513;SDS011;10918;48.102;11.636;2023-08-06T03:08:54;3.55;;;2.33;;
21513;SDS011;10918;48.102;11.636;2023-08-06T03:11:20;4.50;;;2.22;;
21513;SDS011;10918;48.102;11.636;2023-08-06T03:13:49;4.35;;;2.40;;
21513;SDS011;10918;48.102;11.636;2023-08-06T03:16:15;3.75;;;2.70;;
21513;SDS011;10918;48.102;11.636;2023-08-06T03:18:41;4.05;;;2.33;;
21513;SDS011;10918;48.102;11.636;2023-08-06T03:21:07;2.80;;;2.40;;
21513;SDS011;10918;48.102;11.636;2023-08-06T03:23:33;4.85;;;2.70;;
21513;SDS011;10918;48.102;11.636;2023-08-06T03:26:02;2.95;;;2.30;;
21513;SDS011;10918;48.102;11.636;2023-08-06T03:28:28;2.67;;;2.40;;
21513;SDS011;10918;48.102;11.636;2023-08-06T03:31:04;3.10;;;2.47;;
21513;SDS011;10918;48.102;11.636;2023-08-06T03:33:30;4.07;;;2.42;;
21513;SDS011;10918;48.102;11.636;2023-08-06T03:35:56;2.53;;;2.33;;
21513;SDS011;10918;48.102;11.636;2023-08-06T03:38:22;4.53;;;1.95;;
21513;SDS011;10918;48.102;11.636;2023-08-06T03:40:48;4.03;;;2.50;;
21513;SDS011;10918;48.102;11.636;2023-08-06T03:43:15;2.75;;;2.28;;
21513;SDS011;10918;48.102;11.636;2023-08-06T03:45:41;2.78;;;2.45;;
21513;SDS011;10918;48.102;11.636;2023-08-06T03:48:07;2.35;;;2.15;;
21513;SDS011;10918;48.102;11.636;2023-08-06T03:50:33;4.88;;;2.30;;
21513;SDS011;10918;48.102;11.636;2023-08-06T03:52:59;2.35;;;2.15;;
21513;SDS011;10918;48.102;11.636;2023-08-06T03:55:25;3.13;;;2.30;;
21513;SDS011;10918;48.102;11.636;2023-08-06T03:57:51;2.83;;;2.38;;
21513;SDS011;10918;48.102;11.636;2023-08-06T04:00:17;4.00;;;2.60;;
21513;SDS011;10918;48.102;11.636;2023-08-06T04:02:43;3.13;;;2.13;;
21513;SDS011;10918;48.102;11.636;2023-08-06T04:05:09;2.88;;;2.45;;
21513;SDS011;10918;48.102;11.636;2023-08-06T04:07:35;3.50;;;2.38;;
21513;SDS011;10918;48.102;11.636;2023-08-06T04:10:03;3.22;;;2.00;;
21513;SDS011;10918;48.102;11.636;2023-08-06T04:12:29;2.33;;;2.13;;
21513;SDS011;10918;48.102;11.636;2023-08-06T04:14:57;3.58;;;2.05;;
21513;SDS011;10918;48.102;11.636;2023-08-06T04:17:23;2.38;;;2.00;;
21513;SDS011;10918;48.102;11.636;2023-08-06T04:19:50;2.33;;;1.90;;
21513;SDS011;10918;48.102;11.636;2023-08-06T04:22:16;2.72;;;2.00;;
21513;SDS011;10918;48.102;11.636;2023-08-06T04:24:42;3.25;;;2.70;;
21513;SDS011;10918;48.102;11.636;2023-08-06T04:27:08;4.75;;;3.10;;
21513;SDS011;10918;48.102;11.636;2023-08-06T04:29:35;2.65;;;2.08;;
21513;SDS011;10918;48.102;11.636;2023-08-06T04:32:01;2.20;;;1.95;;
21513;SDS011;10918;48.102;11.636;2023-08-06T04:34:27;2.50;;;1.98;;
21513;SDS011;10918;48.102;11.636;2023-08-06T04:36:53;4.60;;;1.98;;
21513;SDS011;10918;48.102;11.636;2023-08-06T04:39:19;2.35;;;2.15;;
21513;SDS011;10918;48.102;11.636;2023-08-06T04:41:45;2.40;;;2.00;;
21513;SDS011;10918;48.102;11.636;2023-08-06T04:44:11;3.17;;;1.90;;
21513;SDS011;10918;48.102;11.636;2023-08-06T04:46:37;4.40;;;1.90;;
21513;SDS011;10918;48.102;11.636;2023-08-06T04:49:03;4.40;;;1.80;;
21513;SDS011;10918;48.102;11.636;2023-08-06T04:51:29;2.22;;;1.50;;
21513;SDS011;10918;48.102;11.636;2023-08-06T04:53:56;1.98;;;1.70;;
21513;SDS011;10918;48.102;11.636;2023-08-06T04:56:22;1.98;;;1.75;;
21513;SDS011;10918;48.102;11.636;2023-08-06T04:58:48;2.28;;;1.83;;
21513;SDS011;10918;48.102;11.636;2023-08-06T05:01:14;4.70;;;2.97;;
21513;SDS011;10918;48.102;11.636;2023-08-06T05:03:40;4.15;;;2.50;;
21513;SDS011;10918;48.102;11.636;2023-08-06T05:06:06;2.88;;;2.00;;
21513;SDS011;10918;48.102;11.636;2023-08-06T05:08:32;2.35;;;1.95;;
21513;SDS011;10918;48.102;11.636;2023-08-06T05:10:58;2.03;;;1.73;;
21513;SDS011;10918;48.102;11.636;2023-08-06T05:13:24;2.35;;;1.63;;
21513;SDS011;10918;48.102;11.636;2023-08-06T05:15:50;2.20;;;2.00;;
21513;SDS011;10918;48.102;11.636;2023-08-06T05:18:16;3.17;;;2.05;;
21513;SDS011;10918;48.102;11.636;2023-08-06T05:20:42;1.88;;;1.70;;
21513;SDS011;10918;48.102;11.636;2023-08-06T05:23:09;2.47;;;1.60;;
21513;SDS011;10918;48.102;11.636;2023-08-06T05:25:35;1.92;;;1.65;;
21513;SDS011;10918;48.102;11.636;2023-08-06T05:28:01;2.10;;;1.90;;
21513;SDS011;10918;48.102;11.636;2023-08-06T05:30:27;4.03;;;1.90;;
21513;SDS011;10918;48.102;11.636;2023-08-06T05:32:53;3.22;;;2.00;;
21513;SDS011;10918;48.102;11.636;2023-08-06T05:35:20;3.85;;;2.10;;
21513;SDS011;10918;48.102;11.636;2023-08-06T05:37:46;2.80;;;1.83;;
21513;SDS011;10918;48.102;11.636;2023-08-06T05:40:12;1.70;;;1.60;;
21513;SDS011;10918;48.102;11.636;2023-08-06T05:42:39;2.35;;;1.83;;
21513;SDS011;10918;48.102;11.636;2023-08-06T05:45:05;3.53;;;1.80;;
21513;SDS011;10918;48.102;11.636;2023-08-06T05:47:31;1.65;;;1.40;;
21513;SDS011;10918;48.102;11.636;2023-08-06T05:49:57;2.45;;;1.80;;
21513;SDS011;10918;48.102;11.636;2023-08-06T05:52:23;2.30;;;1.70;;
21513;SDS011;10918;48.102;11.636;2023-08-06T05:54:49;3.15;;;1.77;;
21513;SDS011;10918;48.102;11.636;2023-08-06T05:57:15;3.65;;;2.10;;
21513;SDS011;10918;48.102;11.636;2023-08-06T05:59:41;2.65;;;1.67;;
21513;SDS011;10918;48.102;11.636;2023-08-06T06:02:07;3.10;;;2.20;;
21513;SDS011;10918;48.102;11.636;2023-08-06T06:04:33;3.50;;;1.77;;
21513;SDS011;10918;48.102;11.636;2023-08-06T06:07:00;1.88;;;1.50;;
21513;SDS011;10918;48.102;11.636;2023-08-06T06:09:25;2.50;;;1.30;;
21513;SDS011;10918;48.102;11.636;2023-08-06T06:11:51;1.90;;;1.70;;
21513;SDS011;10918;48.102;11.636;2023-08-06T06:14:18;3.42;;;1.92;;
21513;SDS011;10918;48.102;11.636;2023-08-06T06:16:44;2.78;;;1.63;;
21513;SDS011;10918;48.102;11.636;2023-08-06T06:19:10;3.47;;;2.53;;
21513;SDS011;10918;48.102;11.636;2023-08-06T06:21:36;1.88;;;1.65;;
21513;SDS011;10918;48.102;11.636;2023-08-06T06:24:05;1.80;;;1.60;;
21513;SDS011;10918;48.102;11.636;2023-08-06T06:26:33;2.63;;;1.60;;
21513;SDS011;10918;48.102;11.636;2023-08-06T06:28:59;1.73;;;1.48;;
21513;SDS011;10918;48.102;11.636;2023-08-06T06:31:24;3.00;;;1.40;;
21513;SDS011;10918;48.102;11.636;2023-08-06T06:33:50;1.30;;;1.20;;
21513;SDS011;10918;48.102;11.636;2023-08-06T06:36:19;3.63;;;1.80;;
21513;SDS011;10918;48.102;11.636;2023-08-06T06:38:45;1.45;;;1.35;;
21513;SDS011;10918;48.102;11.636;2023-08-06T06:41:11;2.50;;;1.50;;
21513;SDS011;10918;48.102;11.636;2023-08-06T06:43:37;2.65;;;1.55;;
21513;SDS011;10918;48.102;11.636;2023-08-06T06:46:04;1.90;;;1.45;;
21513;SDS011;10918;48.102;11.636;2023-08-06T06:48:31;1.88;;;1.52;;
21513;SDS011;10918;48.102;11.636;2023-08-06T06:50:58;2.22;;;1.30;;
21513;SDS011;10918;48.102;11.636;2023-08-06T06:53:24;2.40;;;1.50;;
21513;SDS011;10918;48.102;11.636;2023-08-06T06:55:55;2.88;;;1.25;;
21513;SDS011;10918;48.102;11.636;2023-08-06T06:58:21;1.30;;;1.20;;
21513;SDS011;10918;48.102;11.636;2023-08-06T07:00:48;1.90;;;1.23;;
21513;SDS011;10918;48.102;11.636;2023-08-06T07:03:14;2.05;;;1.70;;
21513;SDS011;10918;48.102;11.636;2023-08-06T07:05:40;2.00;;;1.23;;
21513;SDS011;10918;48.102;11.636;2023-08-06T07:08:06;1.98;;;1.30;;
21513;SDS011;10918;48.102;11.636;2023-08-06T07:10:32;1.95;;;1.20;;
21513;SDS011;10918;48.102;11.636;2023-08-06T07:12:58;3.17;;;1.20;;
21513;SDS011;10918;48.102;11.636;2023-08-06T07:15:25;1.13;;;1.02;;
21513;SDS011;10918;48.102;11.636;2023-08-06T07:17:51;1.33;;;1.08;;
21513;SDS011;10918;48.102;11.636;2023-08-06T07:20:17;2.67;;;1.25;;
21513;SDS011;10918;48.102;11.636;2023-08-06T07:22:43;1.23;;;0.80;;
21513;SDS011;10918;48.102;11.636;2023-08-06T07:25:09;2.63;;;1.80;;
21513;SDS011;10918;48.102;11.636;2023-08-06T07:27:35;3.40;;;1.00;;
21513;SDS011;10918;48.102;11.636;2023-08-06T07:30:01;0.85;;;0.80;;
21513;SDS011;10918;48.102;11.636;2023-08-06T07:32:27;1.15;;;0.82;;
21513;SDS011;10918;48.102;11.636;2023-08-06T07:34:53;3.30;;;0.75;;
21513;SDS011;10918;48.102;11.636;2023-08-06T07:37:24;1.83;;;0.80;;
21513;SDS011;10918;48.102;11.636;2023-08-06T07:39:50;1.88;;;0.70;;
21513;SDS011;10918;48.102;11.636;2023-08-06T07:42:16;1.40;;;1.10;;
21513;SDS011;10918;48.102;11.636;2023-08-06T07:44:45;3.08;;;0.80;;
21513;SDS011;10918;48.102;11.636;2023-08-06T07:47:15;1.50;;;0.75;;
21513;SDS011;10918;48.102;11.636;2023-08-06T07:49:41;2.40;;;0.85;;
21513;SDS011;10918;48.102;11.636;2023-08-06T07:52:07;5.95;;;3.45;;
21513;SDS011;10918;48.102;11.636;2023-08-06T07:54:33;1.15;;;0.80;;
21513;SDS011;10918;48.102;11.636;2023-08-06T07:56:59;1.45;;;0.63;;
21513;SDS011;10918;48.102;11.636;2023-08-06T07:59:25;2.20;;;0.85;;
21513;SDS011;10918;48.102;11.636;2023-08-06T08:01:51;2.35;;;1.00;;
21513;SDS011;10918;48.102;11.636;2023-08-06T08:04:17;1.63;;;0.77;;
21513;SDS011;10918;48.102;11.636;2023-08-06T08:06:43;1.65;;;0.90;;
21513;SDS011;10918;48.102;11.636;2023-08-06T08:09:09;1.42;;;0.90;;
21513;SDS011;10918;48.102;11.636;2023-08-06T08:11:35;2.55;;;0.88;;
21513;SDS011;10918;48.102;11.636;2023-08-06T08:14:01;1.05;;;0.90;;
21513;SDS011;10918;48.102;11.636;2023-08-06T08:16:27;1.05;;;0.75;;
21513;SDS011;10918;48.102;11.636;2023-08-06T08:18:53;1.33;;;0.80;;
21513;SDS011;10918;48.102;11.636;2023-08-06T08:21:19;2.20;;;0.80;;
21513;SDS011;10918;48.102;11.636;2023-08-06T08:23:45;1.23;;;0.63;;
21513;SDS011;10918;48.102;11.636;2023-08-06T08:26:11;1.80;;;0.90;;
21513;SDS011;10918;48.102;11.636;2023-08-06T08:28:37;1.02;;;0.65;;
21513;SDS011;10918;48.102;11.636;2023-08-06T08:31:03;1.50;;;0.75;;
21513;SDS011;10918;48.102;11.636;2023-08-06T08:33:29;0.65;;;0.65;;
21513;SDS011;10918;48.102;11.636;2023-08-06T08:35:55;1.65;;;0.73;;
21513;SDS011;10918;48.102;11.636;2023-08-06T08:38:21;1.00;;;0.70;;
21513;SDS011;10918;48.102;11.636;2023-08-06T08:40:47;1.67;;;0.63;;
21513;SDS011;10918;48.102;11.636;2023-08-06T08:43:15;0.90;;;0.47;;
21513;SDS011;10918;48.102;11.636;2023-08-06T08:45:42;1.23;;;0.47;;
21513;SDS011;10918;48.102;11.636;2023-08-06T08:48:08;1.08;;;0.40;;
21513;SDS011;10918;48.102;11.636;2023-08-06T08:50:37;0.38;;;0.38;;
21513;SDS011;10918;48.102;11.636;2023-08-06T08:53:03;0.68;;;0.40;;
21513;SDS011;10918;48.102;11.636;2023-08-06T08:55:29;0.57;;;0.30;;
21513;SDS011;10918;48.102;11.636;2023-08-06T08:57:55;1.10;;;0.30;;
21513;SDS011;10918;48.102;11.636;2023-08-06T09:00:21;0.77;;;0.40;;
21513;SDS011;10918;48.102;11.636;2023-08-06T09:02:47;0.65;;;0.50;;
21513;SDS011;10918;48.102;11.636;2023-08-06T09:05:13;1.33;;;0.50;;
21513;SDS011;10918;48.102;11.636;2023-08-06T09:07:43;0.63;;;0.20;;
21513;SDS011;10918;48.102;11.636;2023-08-06T09:10:12;1.58;;;0.40;;
21513;SDS011;10918;48.102;11.636;2023-08-06T09:12:40;2.58;;;1.67;;
21513;SDS011;10918;48.102;11.636;2023-08-06T09:15:06;1.33;;;0.50;;
21513;SDS011;10918;48.102;11.636;2023-08-06T09:17:32;1.60;;;0.32;;
21513;SDS011;10918;48.102;11.636;2023-08-06T09:19:58;1.23;;;0.30;;
21513;SDS011;10918;48.102;11.636;2023-08-06T09:22:24;0.32;;;0.25;;
21513;SDS011;10918;48.102;11.636;2023-08-06T09:24:50;0.45;;;0.20;;
21513;SDS011;10918;48.102;11.636;2023-08-06T09:27:16;2.05;;;0.43;;
21513;SDS011;10918;48.102;11.636;2023-08-06T09:29:43;0.90;;;0.25;;
21513;SDS011;10918;48.102;11.636;2023-08-06T09:32:10;1.20;;;0.80;;
21513;SDS011;10918;48.102;11.636;2023-08-06T09:34:38;2.72;;;2.17;;
21513;SDS011;10918;48.102;11.636;2023-08-06T09:37:04;0.98;;;0.30;;
21513;SDS011;10918;48.102;11.636;2023-08-06T09:39:30;1.10;;;0.70;;
21513;SDS011;10918;48.102;11.636;2023-08-06T09:41:57;1.98;;;0.32;;
21513;SDS011;10918;48.102;11.636;2023-08-06T09:44:25;0.20;;;0.20;;
21513;SDS011;10918;48.102;11.636;2023-08-06T09:46:52;0.68;;;0.57;;
21513;SDS011;10918;48.102;11.636;2023-08-06T09:49:19;0.45;;;0.10;;
21513;SDS011;10918;48.102;11.636;2023-08-06T09:51:46;0.40;;;0.30;;
21513;SDS011;10918;48.102;11.636;2023-08-06T09:54:16;0.98;;;0.20;;
21513;SDS011;10918;48.102;11.636;2023-08-06T09:56:42;0.77;;;0.30;;
21513;SDS011;10918;48.102;11.636;2023-08-06T09:59:08;0.20;;;0.10;;
21513;SDS011;10918;48.102;11.636;2023-08-06T10:01:36;0.43;;;0.20;;
21513;SDS011;10918;48.102;11.636;2023-08-06T10:04:03;0.10;;;0.10;;
21513;SDS011;10918;48.102;11.636;2023-08-06T10:06:29;0.65;;;0.20;;
21513;SDS011;10918;48.102;11.636;2023-08-06T10:08:55;0.22;;;0.20;;
21513;SDS011;10918;48.102;11.636;2023-08-06T10:11:22;0.45;;;0.17;;
21513;SDS011;10918;48.102;11.636;2023-08-06T10:13:51;0.40;;;0.10;;
21513;SDS011;10918;48.102;11.636;2023-08-06T10:16:18;0.45;;;0.45;;
21513;SDS011;10918;48.102;11.636;2023-08-06T10:18:44;1.48;;;1.15;;
21513;SDS011;10918;48.102;11.636;2023-08-06T10:21:10;1.40;;;1.23;;
21513;SDS011;10918;48.102;11.636;2023-08-06T10:23:36;2.30;;;1.73;;
21513;SDS011;10918;48.102;11.636;2023-08-06T10:26:03;0.35;;;0.20;;
21513;SDS011;10918;48.102;11.636;2023-08-06T10:28:38;0.45;;;0.10;;
21513;SDS011;10918;48.102;11.636;2023-08-06T10:31:05;0.65;;;0.20;;
21513;SDS011;10918;48.102;11.636;2023-08-06T10:33:41;0.15;;;0.10;;
21513;SDS011;10918;48.102;11.636;2023-08-06T10:36:08;0.50;;;0.50;;
21513;SDS011;10918;48.102;11.636;2023-08-06T10:38:34;1.75;;;0.10;;
21513;SDS011;10918;48.102;11.636;2023-08-06T10:41:02;0.10;;;0.10;;
21513;SDS011;10918;48.102;11.636;2023-08-06T10:43:32;1.52;;;0.75;;
21513;SDS011;10918;48.102;11.636;2023-08-06T10:45:59;0.32;;;0.32;;
21513;SDS011;10918;48.102;11.636;2023-08-06T10:50:56;0.50;;;0.10;;
21513;SDS011;10918;48.102;11.636;2023-08-06T10:53:22;0.80;;;0.20;;
21513;SDS011;10918;48.102;11.636;2023-08-06T10:55:51;0.10;;;0.10;;
21513;SDS011;10918;48.102;11.636;2023-08-06T10:58:17;0.20;;;0.20;;
21513;SDS011;10918;48.102;11.636;2023-08-06T11:00:43;0.47;;;0.30;;
21513;SDS011;10918;48.102;11.636;2023-08-06T11:03:09;0.15;;;0.10;;
21513;SDS011;10918;48.102;11.636;2023-08-06T11:05:35;1.55;;;0.10;;
21513;SDS011;10918;48.102;11.636;2023-08-06T11:08:01;0.30;;;0.20;;
21513;SDS011;10918;48.102;11.636;2023-08-06T11:10:27;0.20;;;0.20;;
21513;SDS011;10918;48.102;11.636;2023-08-06T11:12:53;3.22;;;2.47;;
21513;SDS011;10918;48.102;11.636;2023-08-06T11:15:22;0.17;;;0.17;;
21513;SDS011;10918;48.102;11.636;2023-08-06T11:17:48;0.45;;;0.10;;
21513;SDS011;10918;48.102;11.636;2023-08-06T11:20:15;0.20;;;0.20;;
21513;SDS011;10918;48.102;11.636;2023-08-06T11:22:42;0.85;;;0.10;;
21513;SDS011;10918;48.102;11.636;2023-08-06T11:25:08;0.77;;;0.43;;
21513;SDS011;10918;48.102;11.636;2023-08-06T11:27:34;0.68;;;0.20;;
21513;SDS011;10918;48.102;11.636;2023-08-06T11:30:00;0.52;;;0.25;;
21513;SDS011;10918;48.102;11.636;2023-08-06T11:32:26;3.35;;;2.38;;
21513;SDS011;10918;48.102;11.636;2023-08-06T11:34:53;0.80;;;0.40;;
21513;SDS011;10918;48.102;11.636;2023-08-06T11:37:22;0.80;;;0.10;;
21513;SDS011;10918;48.102;11.636;2023-08-06T11:39:51;0.40;;;0.30;;
21513;SDS011;10918;48.102;11.636;2023-08-06T11:42:18;0.00;;;0.00;;
21513;SDS011;10918;48.102;11.636;2023-08-06T11:44:44;0.10;;;0.10;;
21513;SDS011;10918;48.102;11.636;2023-08-06T11:47:12;1.35;;;0.30;;
21513;SDS011;10918;48.102;11.636;2023-08-06T11:54:44;1.60;;;1.50;;
21513;SDS011;10918;48.102;11.636;2023-08-06T11:57:10;0.20;;;0.10;;
21513;SDS011;10918;48.102;11.636;2023-08-06T11:59:37;0.05;;;0.05;;
21513;SDS011;10918;48.102;11.636;2023-08-06T12:02:04;1.50;;;0.20;;
21513;SDS011;10918;48.102;11.636;2023-08-06T12:04:31;0.15;;;0.15;;
21513;SDS011;10918;48.102;11.636;2023-08-06T12:07:04;1.33;;;0.10;;
21513;SDS011;10918;48.102;11.636;2023-08-06T12:09:32;0.10;;;0.10;;
21513;SDS011;10918;48.102;11.636;2023-08-06T12:11:58;0.43;;;0.20;;
21513;SDS011;10918;48.102;11.636;2023-08-06T12:14:24;0.13;;;0.10;;
21513;SDS011;10918;48.102;11.636;2023-08-06T12:16:50;0.52;;;0.03;;
21513;SDS011;10918;48.102;11.636;2023-08-06T12:19:16;0.10;;;0.10;;
21513;SDS011;10918;48.102;11.636;2023-08-06T12:21:42;0.22;;;0.10;;
21513;SDS011;10918;48.102;11.636;2023-08-06T12:24:08;0.20;;;0.20;;
21513;SDS011;10918;48.102;11.636;2023-08-06T12:26:35;0.05;;;0.05;;
21513;SDS011;10918;48.102;11.636;2023-08-06T12:29:01;0.10;;;0.10;;
21513;SDS011;10918;48.102;11.636;2023-08-06T12:31:27;1.35;;;0.20;;
21513;SDS011;10918;48.102;11.636;2023-08-06T12:33:53;0.03;;;0.00;;
21513;SDS011;10918;48.102;11.636;2023-08-06T12:36:19;1.35;;;0.22;;
21513;SDS011;10918;48.102;11.636;2023-08-06T12:38:45;0.10;;;0.10;;
21513;SDS011;10918;48.102;11.636;2023-08-06T12:41:11;0.30;;;0.10;;
21513;SDS011;10918;48.102;11.636;2023-08-06T12:43:37;0.10;;;0.10;;
21513;SDS011;10918;48.102;11.636;2023-08-06T12:46:03;0.13;;;0.13;;
21513;SDS011;10918;48.102;11.636;2023-08-06T12:48:29;1.10;;;0.10;;
21513;SDS011;10918;48.102;11.636;2023-08-06T12:50:55;0.20;;;0.20;;
21513;SDS011;10918;48.102;11.636;2023-08-06T12:53:21;0.20;;;0.20;;
21513;SDS011;10918;48.102;11.636;2023-08-06T12:55:48;6.80;;;5.15;;
21513;SDS011;10918;48.102;11.636;2023-08-06T12:58:14;3.00;;;2.30;;
21513;SDS011;10918;48.102;11.636;2023-08-06T13:00:40;0.50;;;0.20;;
21513;SDS011;10918;48.102;11.636;2023-08-06T13:03:06;0.30;;;0.10;;
21513;SDS011;10918;48.102;11.636;2023-08-06T13:05:32;0.10;;;0.10;;
21513;SDS011;10918;48.102;11.636;2023-08-06T13:07:58;0.28;;;0.28;;
21513;SDS011;10918;48.102;11.636;2023-08-06T13:10:24;0.13;;;0.13;;
21513;SDS011;10918;48.102;11.636;2023-08-06T13:12:50;0.68;;;0.20;;
21513;SDS011;10918;48.102;11.636;2023-08-06T13:15:16;0.90;;;0.20;;
21513;SDS011;10918;48.102;11.636;2023-08-06T13:17:44;0.10;;;0.10;;
21513;SDS011;10918;48.102;11.636;2023-08-06T13:20:10;0.13;;;0.13;;
21513;SDS011;10918;48.102;11.636;2023-08-06T13:22:36;0.30;;;0.13;;
21513;SDS011;10918;48.102;11.636;2023-08-06T13:25:02;0.10;;;0.10;;
21513;SDS011;10918;48.102;11.636;2023-08-06T13:27:28;0.25;;;0.25;;
21513;SDS011;10918;48.102;11.636;2023-08-06T13:29:55;0.30;;;0.20;;
21513;SDS011;10918;48.102;11.636;2023-08-06T13:32:20;0.40;;;0.20;;
21513;SDS011;10918;48.102;11.636;2023-08-06T13:34:46;0.13;;;0.10;;
21513;SDS011;10918;48.102;11.636;2023-08-06T13:37:12;0.32;;;0.15;;
21513;SDS011;10918;48.102;11.636;2023-08-06T13:39:38;0.17;;;0.10;;
21513;SDS011;10918;48.102;11.636;2023-08-06T13:42:04;0.50;;;0.30;;
21513;SDS011;10918;48.102;11.636;2023-08-06T13:44:30;0.28;;;0.10;;
21513;SDS011;10918;48.102;11.636;2023-08-06T13:47:00;0.60;;;0.20;;
21513;SDS011;10918;48.102;11.636;2023-08-06T13:49:26;2.38;;;0.65;;
21513;SDS011;10918;48.102;11.636;2023-08-06T13:51:52;0.20;;;0.20;;
21513;SDS011;10918;48.102;11.636;2023-08-06T13:54:18;0.43;;;0.22;;
21513;SDS011;10918;48.102;11.636;2023-08-06T13:56:46;0.90;;;0.80;;
21513;SDS011;10918;48.102;11.636;2023-08-06T13:59:12;0.45;;;0.20;;
21513;SDS011;10918;48.102;11.636;2023-08-06T14:01:39;0.40;;;0.40;;
21513;SDS011;10918;48.102;11.636;2023-08-06T14:04:05;1.33;;;1.23;;
21513;SDS011;10918;48.102;11.636;2023-08-06T14:06:31;0.28;;;0.20;;
21513;SDS011;10918;48.102;11.636;2023-08-06T14:08:57;0.40;;;0.22;;
21513;SDS011;10918;48.102;11.636;2023-08-06T14:11:23;0.20;;;0.10;;
21513;SDS011;10918;48.102;11.636;2023-08-06T14:13:49;0.38;;;0.10;;
21513;SDS011;10918;48.102;11.636;2023-08-06T14:16:15;0.55;;;0.20;;
21513;SDS011;10918;48.102;11.636;2023-08-06T14:18:41;0.30;;;0.30;;
21513;SDS011;10918;48.102;11.636;2023-08-06T14:21:07;0.45;;;0.10;;
21513;SDS011;10918;48.102;11.636;2023-08-06T14:23:33;0.30;;;0.30;;
21513;SDS011;10918;48.102;11.636;2023-08-06T14:25:59;0.10;;;0.10;;
21513;SDS011;10918;48.102;11.636;2023-08-06T14:28:25;0.20;;;0.20;;
21513;SDS011;10918;48.102;11.636;2023-08-06T14:30:51;0.20;;;0.20;;
21513;SDS011;10918;48.102;11.636;2023-08-06T14:33:17;1.48;;;0.35;;
21513;SDS011;10918;48.102;11.636;2023-08-06T14:35:43;0.57;;;0.30;;
21513;SDS011;10918;48.102;11.636;2023-08-06T14:38:09;0.10;;;0.10;;
21513;SDS011;10918;48.102;11.636;2023-08-06T14:40:36;0.20;;;0.20;;
21513;SDS011;10918;48.102;11.636;2023-08-06T14:43:04;1.80;;;0.28;;